Time;durP1;ratioP1;P1;durP2;ratioP2;P2;SDS_P1;SDS_P2;PMS_P1;PMS_P2;Temp;Humidity;BMP_temperature;BMP_pressure;BME280_temperature;BME280_humidity;BME280_pressure;Samples;Min_cycle;Max_cycle;Signal;HPM_P1;HPM_P2
2022/01/16 00:07:57;;;;;;;19.65;6.25;;;3.90;99.90;;;;;;10249992;28;84985;-45
2022/01/16 00:12:59;;;;;;;27.10;8.77;;;3.90;99.90;;;;;;10250258;28;84054;-46
2022/01/16 00:18:09;;;;;;;23.40;6.82;;;4.00;99.90;;;;;;10250464;28;84031;-48
2022/01/16 00:23:10;;;;;;;16.98;6.65;;;3.90;99.90;;;;;;10250260;28;84008;-45
2022/01/16 00:28:11;;;;;;;19.40;7.25;;;3.80;99.90;;;;;;10248207;28;84298;-50
2022/01/16 00:33:11;;;;;;;21.17;7.25;;;3.60;99.90;;;;;;10249339;28;84042;-48
2022/01/16 00:38:12;;;;;;;17.63;6.40;;;3.70;99.90;;;;;;10247944;28;84173;-45
2022/01/16 00:43:13;;;;;;;20.30;6.75;;;3.70;99.90;;;;;;10248888;28;84143;-46
2022/01/16 00:48:14;;;;;;;18.73;6.60;;;3.80;99.90;;;;;;10248051;28;84139;-46
2022/01/16 00:53:15;;;;;;;17.25;5.95;;;3.90;99.90;;;;;;10249125;28;84785;-49
2022/01/16 00:58:15;;;;;;;21.20;5.75;;;3.80;99.90;;;;;;10247737;28;85028;-49
2022/01/16 01:03:17;;;;;;;16.67;6.20;;;3.80;99.90;;;;;;10248945;28;84133;-46
2022/01/16 01:08:18;;;;;;;27.52;6.93;;;3.70;99.90;;;;;;10248348;28;84058;-48
2022/01/16 01:13:30;;;;;;;19.23;7.47;;;3.60;99.90;;;;;;10250052;28;85079;-45
2022/01/16 01:18:33;;;;;;;23.55;7.38;;;3.70;99.90;;;;;;10248570;28;83929;-46
2022/01/16 01:23:33;;;;;;;18.67;7.00;;;3.70;99.90;;;;;;10259315;28;84908;-45
2022/01/16 01:28:34;;;;;;;24.20;8.00;;;3.80;99.90;;;;;;10285550;28;85125;-49
2022/01/16 01:33:35;;;;;;;25.25;7.05;;;3.90;99.90;;;;;;10287715;28;84126;-46
2022/01/16 01:38:35;;;;;;;19.52;6.32;;;4.10;99.90;;;;;;10285769;28;84150;-47
2022/01/16 01:54:05;;;;;;;26.83;7.05;;;4.00;99.90;;;;;;10286803;28;84651;-50
2022/01/16 01:59:06;;;;;;;22.35;7.07;;;4.00;99.90;;;;;;10251883;23;85058;-56
2022/01/16 02:04:07;;;;;;;23.08;7.63;;;4.00;99.90;;;;;;10246112;28;86042;-56
2022/01/16 02:09:07;;;;;;;26.73;8.10;;;4.00;99.90;;;;;;10245501;28;87169;-58
2022/01/16 02:14:24;;;;;;;29.17;8.15;;;4.00;99.90;;;;;;10248390;28;84919;-53
2022/01/16 02:31:02;;;;;;;15.98;6.18;;;3.90;99.90;;;;;;10247655;28;84653;-56
2022/01/16 02:35:25;;;;;;;24.33;7.45;;;3.90;99.90;;;;;;10245713;28;84228;-56
2022/01/16 02:40:28;;;;;;;30.85;9.07;;;3.70;99.90;;;;;;10247075;28;85186;-53
2022/01/16 02:45:34;;;;;;;27.58;7.80;;;3.60;99.90;;;;;;10247292;28;84148;-56
2022/01/16 02:50:37;;;;;;;30.02;8.70;;;3.70;99.90;;;;;;10247441;28;84139;-57
2022/01/16 02:55:41;;;;;;;23.38;9.05;;;3.70;99.90;;;;;;10246471;28;84048;-56
2022/01/16 03:00:41;;;;;;;35.67;11.20;;;3.70;99.90;;;;;;10246408;28;83992;-58
2022/01/16 03:05:42;;;;;;;31.35;9.50;;;3.60;99.90;;;;;;10252729;28;85365;-57
2022/01/16 03:11:02;;;;;;;34.35;12.23;;;3.50;99.90;;;;;;10253762;28;84912;-55
2022/01/16 03:16:03;;;;;;;34.55;11.82;;;3.50;99.90;;;;;;10251725;28;86184;-58
2022/01/16 03:26:37;;;;;;;39.63;11.02;;;3.60;99.90;;;;;;10241789;28;84169;-57
2022/01/16 03:31:38;;;;;;;29.65;10.07;;;3.60;99.90;;;;;;10254402;28;84899;-56
2022/01/16 03:36:38;;;;;;;28.00;10.30;;;3.60;99.90;;;;;;10253309;28;84160;-57
2022/01/16 03:41:40;;;;;;;30.02;11.00;;;3.60;99.90;;;;;;10252908;28;84248;-57
2022/01/16 03:46:43;;;;;;;29.05;10.40;;;3.70;99.90;;;;;;10250742;28;86992;-55
2022/01/16 03:51:46;;;;;;;26.30;10.32;;;3.60;99.90;;;;;;10252449;28;84081;-58
2022/01/16 03:56:48;;;;;;;32.08;12.20;;;3.60;99.90;;;;;;10251127;28;85704;-56
2022/01/16 04:01:49;;;;;;;33.00;10.60;;;3.70;99.90;;;;;;10252047;28;84949;-58
2022/01/16 04:06:50;;;;;;;34.22;12.82;;;3.70;99.90;;;;;;10251316;28;84013;-57
2022/01/16 04:11:56;;;;;;;40.05;11.98;;;3.60;99.90;;;;;;10251639;28;84968;-58
2022/01/16 04:16:56;;;;;;;34.28;12.05;;;3.70;99.90;;;;;;10249942;28;84981;-53
2022/01/16 04:21:57;;;;;;;33.47;11.80;;;3.80;99.90;;;;;;10251202;28;84222;-58
2022/01/16 04:26:58;;;;;;;41.95;13.00;;;3.70;99.90;;;;;;10250766;28;85079;-57
2022/01/16 04:31:58;;;;;;;36.70;12.60;;;3.80;99.90;;;;;;10250864;28;84274;-57
2022/01/16 04:36:59;;;;;;;35.58;13.05;;;3.70;99.90;;;;;;10250305;28;84849;-55
2022/01/16 04:47:20;;;;;;;35.10;11.32;;;3.80;99.90;;;;;;10250233;28;84131;-56
2022/01/16 04:52:21;;;;;;;35.20;12.70;;;3.90;99.90;;;;;;10250235;28;84958;-56
2022/01/16 04:57:22;;;;;;;32.88;13.23;;;3.80;99.90;;;;;;10247679;28;87088;-57
2022/01/16 05:02:22;;;;;;;31.70;11.75;;;3.80;99.90;;;;;;10249874;28;84107;-56
2022/01/16 05:07:23;;;;;;;33.17;11.38;;;3.70;99.90;;;;;;10247786;28;86123;-56
2022/01/16 05:12:32;;;;;;;48.42;13.80;;;3.80;99.90;;;;;;10249864;28;84281;-57
2022/01/16 05:17:33;;;;;;;27.92;11.68;;;3.80;99.90;;;;;;10244079;28;84226;-58
2022/01/16 05:22:36;;;;;;;29.83;10.52;;;3.70;99.90;;;;;;10249247;28;85183;-57
2022/01/16 05:27:37;;;;;;;35.50;12.57;;;3.80;99.90;;;;;;10248668;28;84091;-56
2022/01/16 05:32:37;;;;;;;32.35;10.90;;;3.70;99.90;;;;;;10247658;28;84096;-57
2022/01/16 05:37:38;;;;;;;35.28;13.50;;;3.80;99.90;;;;;;10248512;28;84910;-57
2022/01/16 05:42:39;;;;;;;33.53;11.25;;;3.80;99.90;;;;;;10249023;28;84782;-56
2022/01/16 05:47:39;;;;;;;36.85;13.23;;;3.80;99.90;;;;;;10242553;28;84053;-58
2022/01/16 05:52:41;;;;;;;36.03;11.40;;;3.70;99.90;;;;;;10248034;28;85002;-57
2022/01/16 05:57:42;;;;;;;36.25;13.30;;;3.80;99.90;;;;;;10245040;28;85249;-54
2022/01/16 06:02:43;;;;;;;31.27;12.80;;;3.80;99.90;;;;;;10248040;28;84307;-58
2022/01/16 06:07:52;;;;;;;40.15;12.60;;;3.80;99.90;;;;;;10247164;28;85060;-58
2022/01/16 06:12:53;;;;;;;28.90;10.57;;;3.70;99.90;;;;;;10248184;28;84931;-58
2022/01/16 06:17:54;;;;;;;34.63;11.95;;;3.70;99.90;;;;;;10243891;28;86934;-58
2022/01/16 06:22:55;;;;;;;39.10;12.30;;;3.80;99.90;;;;;;10248423;28;84881;-56
2022/01/16 06:27:55;;;;;;;39.90;12.18;;;3.70;99.90;;;;;;10247539;28;84783;-58
2022/01/16 06:32:56;;;;;;;34.78;12.57;;;3.60;99.90;;;;;;10247891;28;84091;-59
2022/01/16 06:37:57;;;;;;;38.95;12.43;;;3.60;99.90;;;;;;10245024;28;84194;-58
2022/01/16 06:42:58;;;;;;;35.85;12.85;;;3.70;99.90;;;;;;10245189;28;84823;-55
2022/01/16 06:47:58;;;;;;;39.70;12.98;;;3.60;99.90;;;;;;10239320;28;85135;-57
2022/01/16 06:52:59;;;;;;;38.80;12.68;;;3.60;99.90;;;;;;10245264;28;86108;-60
2022/01/16 06:57:59;;;;;;;38.00;11.55;;;3.70;99.90;;;;;;10245779;28;84082;-59
2022/01/16 07:03:00;;;;;;;40.65;13.07;;;3.60;99.90;;;;;;10246079;28;84958;-58
2022/01/16 07:08:01;;;;;;;38.08;12.85;;;3.60;99.90;;;;;;10243847;28;86041;-59
2022/01/16 07:13:02;;;;;;;34.90;12.70;;;3.70;99.90;;;;;;10246166;28;84229;-58
2022/01/16 07:18:03;;;;;;;37.22;12.50;;;3.70;99.90;;;;;;10245642;28;84854;-59
2022/01/16 07:23:04;;;;;;;44.03;13.73;;;3.80;99.90;;;;;;10246191;28;84260;-59
2022/01/16 07:28:05;;;;;;;55.80;14.93;;;3.70;99.90;;;;;;10233989;28;87019;-56
2022/01/16 07:33:07;;;;;;;39.53;11.80;;;3.80;99.90;;;;;;10237072;28;87262;-56
2022/01/16 07:38:08;;;;;;;39.95;13.70;;;3.70;99.90;;;;;;10245294;28;84096;-58
2022/01/16 07:43:09;;;;;;;34.78;12.32;;;3.70;99.90;;;;;;10245659;28;85371;-56
2022/01/16 07:48:10;;;;;;;41.05;12.23;;;3.80;99.90;;;;;;10245818;28;84058;-58
2022/01/16 07:53:10;;;;;;;43.63;13.23;;;3.90;99.90;;;;;;10250732;28;87050;-57
2022/01/16 07:58:11;;;;;;;40.50;13.05;;;3.90;99.90;;;;;;10273331;23;84220;-49
2022/01/16 08:03:12;;;;;;;39.60;14.55;;;3.90;99.90;;;;;;10282195;28;86204;-48
2022/01/16 08:08:12;;;;;;;50.03;14.52;;;3.90;99.90;;;;;;10266994;28;86468;-47
2022/01/16 08:13:13;;;;;;;52.90;15.30;;;3.90;99.90;;;;;;10284081;28;84006;-51
2022/01/16 08:18:14;;;;;;;45.13;13.55;;;4.00;99.90;;;;;;10283152;28;85448;-55
2022/01/16 08:23:14;;;;;;;41.05;14.15;;;3.90;99.90;;;;;;10282207;28;84831;-56
2022/01/16 08:28:15;;;;;;;44.92;15.15;;;3.90;99.90;;;;;;10296644;28;84585;-60
2022/01/16 08:33:15;;;;;;;43.92;15.73;;;4.00;99.90;;;;;;10285571;28;85068;-53
2022/01/16 08:38:16;;;;;;;47.88;14.45;;;4.00;99.90;;;;;;10282426;28;85368;-48
2022/01/16 08:43:17;;;;;;;44.38;15.55;;;4.00;99.90;;;;;;10282638;28;84731;-51
2022/01/16 08:48:20;;;;;;;50.22;15.50;;;4.00;99.90;;;;;;10283680;28;84898;-52
2022/01/16 08:53:21;;;;;;;43.88;16.00;;;4.10;99.90;;;;;;10283337;28;84265;-49
2022/01/16 08:58:21;;;;;;;47.20;16.35;;;4.20;99.90;;;;;;10285007;28;86217;-51
2022/01/16 09:03:23;;;;;;;47.42;16.70;;;4.30;99.90;;;;;;10286021;28;87147;-48
2022/01/16 09:08:23;;;;;;;44.38;16.85;;;4.30;99.90;;;;;;10289947;28;84994;-49
2022/01/16 09:13:24;;;;;;;53.38;17.67;;;4.30;99.90;;;;;;10290285;28;87808;-45
2022/01/16 09:18:25;;;;;;;47.00;16.17;;;4.40;99.90;;;;;;10292118;28;83998;-46
2022/01/16 09:23:26;;;;;;;51.47;16.23;;;4.40;99.90;;;;;;10288269;28;85958;-49
2022/01/16 09:28:26;;;;;;;54.05;16.77;;;4.60;99.90;;;;;;10288145;28;86044;-47
2022/01/16 09:33:27;;;;;;;50.95;17.75;;;4.50;99.90;;;;;;10289306;28;84909;-47
2022/01/16 09:38:28;;;;;;;45.70;18.77;;;4.60;99.90;;;;;;10288496;28;84074;-49
2022/01/16 09:43:29;;;;;;;52.67;16.63;;;4.60;99.90;;;;;;10288213;28;85111;-45
2022/01/16 09:48:29;;;;;;;48.33;17.83;;;4.60;99.90;;;;;;10270783;28;84895;-47
2022/01/16 09:53:30;;;;;;;42.65;14.77;;;4.70;99.90;;;;;;10290334;28;84851;-46
2022/01/16 09:58:31;;;;;;;37.35;15.57;;;4.80;99.90;;;;;;10287871;28;84919;-47
2022/01/16 10:03:43;;;;;;;41.80;15.80;;;4.80;99.90;;;;;;10287537;28;87028;-47
2022/01/16 10:08:45;;;;;;;43.30;15.68;;;4.80;99.90;;;;;;10288794;28;84034;-46
2022/01/16 10:14:13;;;;;;;44.30;17.45;;;4.90;99.90;;;;;;10289647;28;84105;-48
2022/01/16 10:19:26;;;;;;;33.85;14.52;;;5.10;99.90;;;;;;10287015;28;85760;-47
2022/01/16 10:24:30;;;;;;;38.90;15.57;;;5.10;99.90;;;;;;10286749;28;86097;-48
2022/01/16 10:29:31;;;;;;;42.03;15.60;;;5.20;99.90;;;;;;10296314;28;86032;-47
2022/01/16 10:34:33;;;;;;;38.80;15.90;;;5.30;99.90;;;;;;10294328;28;85476;-49
2022/01/16 10:39:34;;;;;;;35.15;15.65;;;5.30;99.90;;;;;;10286533;28;84975;-46
2022/01/16 10:44:35;;;;;;;37.75;13.60;;;5.30;99.90;;;;;;10277716;28;85444;-44
2022/01/16 10:49:36;;;;;;;31.88;13.90;;;5.30;99.90;;;;;;10275924;28;84553;-47
2022/01/16 10:54:40;;;;;;;38.15;15.68;;;5.30;99.90;;;;;;10295274;28;85201;-51
2022/01/16 10:59:41;;;;;;;35.08;15.07;;;5.40;99.90;;;;;;10269216;28;84927;-46
2022/01/16 11:04:41;;;;;;;32.13;13.02;;;5.50;99.90;;;;;;10279346;28;84872;-51
2022/01/16 11:09:43;;;;;;;30.23;12.75;;;5.60;99.90;;;;;;10287965;28;84394;-52
2022/01/16 11:14:44;;;;;;;32.05;13.13;;;5.70;99.90;;;;;;10270692;28;86148;-49
2022/01/16 11:19:45;;;;;;;32.75;13.38;;;5.80;99.90;;;;;;10253197;28;85259;-51
2022/01/16 11:24:58;;;;;;;27.95;13.23;;;5.80;99.90;;;;;;10285703;28;84074;-48
2022/01/16 11:29:59;;;;;;;27.92;12.38;;;5.90;99.90;;;;;;10281735;28;84217;-49
2022/01/16 11:35:00;;;;;;;29.73;12.35;;;5.90;99.90;;;;;;10279807;28;84441;-50
2022/01/16 11:40:51;;;;;;;24.50;11.32;;;5.90;99.90;;;;;;10267819;28;86868;-53
2022/01/16 11:46:08;;;;;;;22.90;9.65;;;6.00;99.90;;;;;;10241720;28;85009;-50
2022/01/16 11:51:31;;;;;;;25.92;11.25;;;6.00;99.90;;;;;;10257944;28;85052;-54
2022/01/16 11:56:41;;;;;;;25.90;11.60;;;6.00;99.90;;;;;;10276463;28;85002;-52
2022/01/16 12:01:45;;;;;;;26.90;10.45;;;6.00;99.90;;;;;;10331370;28;84849;-48
2022/01/16 12:06:46;;;;;;;27.02;11.43;;;6.20;99.90;;;;;;10333432;28;85094;-48
2022/01/16 12:11:46;;;;;;;26.40;10.65;;;6.20;99.90;;;;;;10334151;28;84955;-48
2022/01/16 12:16:47;;;;;;;22.83;10.77;;;6.20;99.90;;;;;;10294403;28;85227;-51
2022/01/16 12:21:53;;;;;;;25.20;11.23;;;6.30;99.90;;;;;;10323582;28;84832;-50
2022/01/16 12:27:20;;;;;;;27.73;11.55;;;6.30;99.90;;;;;;10332002;28;84046;-50
2022/01/16 12:32:58;;;;;;;26.95;11.25;;;6.40;99.90;;;;;;10329437;28;85969;-49
2022/01/16 12:38:18;;;;;;;23.40;10.00;;;6.40;99.90;;;;;;10272169;28;85306;-47
2022/01/16 12:43:33;;;;;;;22.40;10.25;;;6.30;99.90;;;;;;10320572;28;84154;-46
2022/01/16 12:48:39;;;;;;;31.13;11.75;;;6.40;99.90;;;;;;10313955;28;84337;-46
2022/01/16 12:53:50;;;;;;;22.85;10.85;;;6.40;99.90;;;;;;10331494;28;84846;-45
2022/01/16 12:58:58;;;;;;;29.48;11.10;;;6.30;99.90;;;;;;10329720;28;85234;-47
2022/01/16 13:03:59;;;;;;;26.95;13.07;;;6.40;99.90;;;;;;10320971;28;84941;-46
2022/01/16 13:09:03;;;;;;;29.30;12.13;;;6.50;99.90;;;;;;10306027;28;84189;-48
2022/01/16 13:14:10;;;;;;;27.42;11.43;;;6.50;99.90;;;;;;10298055;28;84359;-45
2022/01/16 13:19:12;;;;;;;26.77;12.15;;;6.60;99.90;;;;;;10289545;28;84801;-52
2022/01/16 13:24:34;;;;;;;26.00;11.50;;;6.50;99.90;;;;;;10294909;28;84902;-51
2022/01/16 13:29:37;;;;;;;24.20;11.38;;;6.50;99.90;;;;;;10265919;28;84566;-47
2022/01/16 13:34:54;;;;;;;33.42;13.20;;;6.50;99.90;;;;;;10267231;28;84646;-49
2022/01/16 13:40:08;;;;;;;26.80;11.10;;;6.60;99.90;;;;;;10254450;28;84100;-49
2022/01/16 13:45:35;;;;;;;24.02;11.85;;;6.50;99.90;;;;;;10285536;28;84299;-48
2022/01/16 13:51:01;;;;;;;28.75;10.90;;;6.50;99.90;;;;;;10296219;28;87010;-51
2022/01/16 13:56:04;;;;;;;32.63;12.20;;;6.50;99.90;;;;;;10288846;28;85032;-48
2022/01/16 14:01:16;;;;;;;31.90;12.98;;;6.50;99.90;;;;;;10266836;22;84925;-54
2022/01/16 14:06:17;;;;;;;31.08;11.88;;;6.40;99.90;;;;;;10232285;28;84118;-51
2022/01/16 14:11:20;;;;;;;29.83;11.68;;;6.40;99.90;;;;;;10246168;28;84128;-55
2022/01/16 14:16:22;;;;;;;28.02;12.27;;;6.40;99.90;;;;;;10248503;28;84807;-50
2022/01/16 14:26:52;;;;;;;37.00;13.13;;;6.40;99.90;;;;;;10269176;28;84910;-54
2022/01/16 14:31:54;;;;;;;32.85;11.52;;;6.30;99.90;;;;;;10279121;28;84784;-51
2022/01/16 14:36:56;;;;;;;29.23;11.52;;;6.40;99.90;;;;;;10288164;28;84173;-52
2022/01/16 14:41:58;;;;;;;32.15;12.77;;;6.40;99.90;;;;;;10277247;28;86017;-50
2022/01/16 14:47:03;;;;;;;38.05;13.23;;;6.40;99.90;;;;;;10276444;28;84060;-52
2022/01/16 14:52:05;;;;;;;32.78;13.10;;;6.30;99.90;;;;;;10288480;28;84959;-53
2022/01/16 14:57:06;;;;;;;32.60;11.38;;;6.30;99.90;;;;;;10286183;28;84126;-51
2022/01/16 15:02:06;;;;;;;33.75;12.85;;;6.30;99.90;;;;;;10239311;28;84303;-54
2022/01/16 15:07:08;;;;;;;34.83;12.05;;;6.30;99.90;;;;;;10251210;28;84127;-53
2022/01/16 15:12:09;;;;;;;35.08;12.02;;;6.30;99.90;;;;;;10254498;28;85057;-53
2022/01/16 15:17:09;;;;;;;34.88;12.35;;;6.20;99.90;;;;;;10258376;28;84016;-54
2022/01/16 15:22:22;;;;;;;36.85;12.23;;;6.20;99.90;;;;;;10239553;28;85165;-57
2022/01/16 15:27:23;;;;;;;34.92;12.77;;;6.20;99.90;;;;;;10244566;28;84170;-57
2022/01/16 15:32:24;;;;;;;31.10;11.07;;;6.10;99.90;;;;;;10243147;28;85147;-54
2022/01/16 15:37:28;;;;;;;35.08;12.77;;;6.20;99.90;;;;;;10253601;28;84951;-56
2022/01/16 15:42:28;;;;;;;30.83;12.27;;;6.20;99.90;;;;;;10237983;28;84312;-54
2022/01/16 15:47:29;;;;;;;34.20;12.70;;;6.20;99.90;;;;;;10242636;28;84175;-51
2022/01/16 15:52:31;;;;;;;34.22;12.65;;;6.20;99.90;;;;;;10245455;28;84941;-52
2022/01/16 15:57:33;;;;;;;27.27;12.57;;;6.20;99.90;;;;;;10232466;28;84067;-56
2022/01/16 16:02:34;;;;;;;33.15;12.80;;;6.20;99.90;;;;;;10247043;28;84256;-52
2022/01/16 16:07:34;;;;;;;30.83;12.15;;;6.20;99.90;;;;;;10247437;28;84247;-49
2022/01/16 16:12:35;;;;;;;37.17;12.52;;;6.20;99.90;;;;;;10251584;28;84369;-52
2022/01/16 16:17:36;;;;;;;27.58;11.65;;;6.20;99.90;;;;;;10243453;28;84337;-54
2022/01/16 16:22:37;;;;;;;29.88;12.48;;;6.10;99.90;;;;;;10244589;28;87002;-55
2022/01/16 16:27:37;;;;;;;34.38;12.60;;;6.10;99.90;;;;;;10255377;28;85015;-52
2022/01/16 16:32:38;;;;;;;29.35;11.60;;;6.10;99.90;;;;;;10241103;28;85580;-53
2022/01/16 16:37:39;;;;;;;28.65;11.45;;;6.20;99.90;;;;;;10255395;28;84962;-56
2022/01/16 16:42:40;;;;;;;33.45;11.95;;;6.20;99.90;;;;;;10254871;28;84176;-56
2022/01/16 16:47:40;;;;;;;36.20;12.25;;;6.10;99.90;;;;;;10253711;28;84844;-56
2022/01/16 16:52:43;;;;;;;33.70;12.20;;;6.10;99.90;;;;;;10232034;28;84183;-57
2022/01/16 16:57:44;;;;;;;35.05;11.85;;;6.10;99.90;;;;;;10253501;28;84262;-59
2022/01/16 17:02:45;;;;;;;32.05;12.20;;;6.10;99.90;;;;;;10254344;28;84397;-60
2022/01/16 17:07:45;;;;;;;32.30;12.60;;;6.10;99.90;;;;;;10234738;28;84357;-56
2022/01/16 17:12:46;;;;;;;33.85;12.57;;;6.10;99.90;;;;;;10244166;28;85028;-56
2022/01/16 17:17:50;;;;;;;32.95;13.02;;;6.10;99.90;;;;;;10233503;28;84262;-55
2022/01/16 17:22:51;;;;;;;28.15;12.48;;;6.10;99.90;;;;;;10236730;28;84845;-60
2022/01/16 17:27:53;;;;;;;30.90;12.45;;;6.10;99.90;;;;;;10234987;28;84244;-56
2022/01/16 17:32:53;;;;;;;33.28;13.18;;;6.20;99.90;;;;;;10254930;28;84304;-57
2022/01/16 17:37:54;;;;;;;40.25;13.85;;;6.10;99.90;;;;;;10236058;28;84259;-56
2022/01/16 17:42:58;;;;;;;36.20;14.02;;;6.10;99.90;;;;;;10257393;28;85089;-56
2022/01/16 17:48:01;;;;;;;29.90;11.73;;;6.10;99.90;;;;;;10228251;28;85740;-57
2022/01/16 17:53:02;;;;;;;37.85;14.07;;;6.10;99.90;;;;;;10239965;28;84930;-55
2022/01/16 17:58:03;;;;;;;29.65;12.30;;;6.10;99.90;;;;;;10229545;28;84798;-59
2022/01/16 18:03:03;;;;;;;26.90;11.32;;;6.20;99.90;;;;;;10222610;28;84904;-52
2022/01/16 18:08:04;;;;;;;26.85;11.27;;;6.10;99.90;;;;;;10227490;28;84297;-58
2022/01/16 18:13:05;;;;;;;33.08;11.85;;;6.00;99.90;;;;;;10217834;28;84509;-57
2022/01/16 18:18:06;;;;;;;27.80;11.35;;;6.00;99.90;;;;;;10238204;28;85434;-58
2022/01/16 18:23:08;;;;;;;23.98;11.40;;;6.00;99.90;;;;;;10266320;28;84201;-54
2022/01/16 18:28:09;;;;;;;23.67;11.68;;;6.10;99.90;;;;;;10254440;28;84182;-60
2022/01/16 18:33:10;;;;;;;30.98;12.25;;;6.10;99.90;;;;;;10240528;28;84251;-54
2022/01/16 18:38:10;;;;;;;31.75;12.02;;;6.10;99.90;;;;;;10239437;28;84165;-54
2022/01/16 18:43:12;;;;;;;29.48;12.32;;;6.10;99.90;;;;;;10233862;28;84962;-58
2022/01/16 18:48:14;;;;;;;31.92;12.38;;;6.10;99.90;;;;;;10231492;28;84233;-52
2022/01/16 18:53:17;;;;;;;30.95;12.45;;;6.10;99.90;;;;;;10233075;28;84143;-57
2022/01/16 18:58:19;;;;;;;33.55;11.95;;;6.20;99.90;;;;;;10231499;28;84358;-56
2022/01/16 19:03:20;;;;;;;31.33;11.50;;;6.20;99.90;;;;;;10230766;28;84245;-55
2022/01/16 19:08:21;;;;;;;27.90;11.10;;;6.20;99.90;;;;;;10235519;28;84948;-50
2022/01/16 19:13:21;;;;;;;28.50;11.32;;;6.20;99.90;;;;;;10237586;28;84868;-52
2022/01/16 19:18:22;;;;;;;27.05;11.30;;;6.20;99.90;;;;;;10244210;28;84535;-53
2022/01/16 19:23:23;;;;;;;26.13;9.93;;;6.30;99.90;;;;;;10255043;28;84870;-56
2022/01/16 19:28:24;;;;;;;28.52;11.05;;;6.20;99.90;;;;;;10272743;28;85019;-52
2022/01/16 19:33:24;;;;;;;28.23;10.75;;;6.20;99.90;;;;;;10242799;28;84357;-50
2022/01/16 19:38:25;;;;;;;24.27;11.00;;;6.30;99.90;;;;;;10253779;28;84990;-54
2022/01/16 19:43:26;;;;;;;31.48;11.82;;;6.20;99.90;;;;;;10245332;28;84914;-57
2022/01/16 19:48:28;;;;;;;27.10;11.30;;;6.20;99.90;;;;;;10257204;28;84240;-56
2022/01/16 19:53:29;;;;;;;28.75;11.73;;;6.30;99.90;;;;;;10272421;28;84936;-60
2022/01/16 19:58:30;;;;;;;26.80;10.90;;;6.30;99.90;;;;;;10303580;22;85024;-49
2022/01/16 20:03:31;;;;;;;33.17;11.93;;;6.30;99.90;;;;;;10266967;28;86178;-51
2022/01/16 20:08:32;;;;;;;30.80;11.52;;;6.40;99.90;;;;;;10251083;28;84373;-47
2022/01/16 20:13:32;;;;;;;44.83;12.82;;;6.50;99.90;;;;;;10251640;28;84099;-53
2022/01/16 20:18:33;;;;;;;42.05;13.35;;;6.40;99.90;;;;;;10233896;28;85127;-51
2022/01/16 20:23:34;;;;;;;28.00;12.50;;;6.50;99.90;;;;;;10250637;28;84330;-54
2022/01/16 20:28:34;;;;;;;32.25;11.75;;;6.50;99.90;;;;;;10248942;28;85046;-50
2022/01/16 20:33:36;;;;;;;34.65;14.25;;;6.60;99.90;;;;;;10252076;28;84231;-50
2022/01/16 20:38:37;;;;;;;28.77;12.30;;;6.60;99.90;;;;;;10233740;28;85187;-54
2022/01/16 20:43:38;;;;;;;32.00;13.85;;;6.60;99.90;;;;;;10252007;28;84071;-49
2022/01/16 20:48:41;;;;;;;37.05;12.63;;;6.60;99.90;;;;;;10244876;28;84983;-48
2022/01/16 20:53:41;;;;;;;35.28;14.10;;;6.70;99.90;;;;;;10248748;28;84881;-52
2022/01/16 20:58:43;;;;;;;34.92;13.68;;;6.70;99.90;;;;;;10242796;28;85440;-49
2022/01/16 21:03:44;;;;;;;38.13;14.52;;;6.70;99.90;;;;;;10248402;28;84382;-54
2022/01/16 21:08:45;;;;;;;41.35;14.90;;;6.70;99.90;;;;;;10272493;28;85033;-53
2022/01/16 21:13:48;;;;;;;39.33;14.52;;;6.70;99.90;;;;;;10268026;28;84169;-54
2022/01/16 21:18:49;;;;;;;38.10;14.13;;;6.70;99.90;;;;;;10249621;28;85060;-50
2022/01/16 21:23:50;;;;;;;30.90;13.05;;;6.70;99.90;;;;;;10252097;28;85136;-49
2022/01/16 21:28:51;;;;;;;30.95;12.60;;;6.70;99.90;;;;;;10272196;28;84790;-54
2022/01/16 21:33:52;;;;;;;35.95;13.05;;;6.70;99.90;;;;;;10245144;28;85430;-51
2022/01/16 21:38:53;;;;;;;29.70;11.90;;;6.60;99.90;;;;;;10240383;28;84881;-52
2022/01/16 21:43:54;;;;;;;25.75;11.50;;;6.60;99.90;;;;;;10246018;28;84757;-53
2022/01/16 21:48:55;;;;;;;28.48;10.98;;;6.60;99.90;;;;;;10236726;28;84246;-48
2022/01/16 21:53:55;;;;;;;28.95;11.13;;;6.70;99.90;;;;;;10248846;28;84149;-56
2022/01/16 21:58:56;;;;;;;30.98;11.00;;;6.70;99.90;;;;;;10250891;28;84978;-51
2022/01/16 22:03:56;;;;;;;25.65;10.70;;;6.80;99.90;;;;;;10251896;28;85269;-52
2022/01/16 22:08:57;;;;;;;25.48;10.75;;;6.80;99.90;;;;;;10246563;28;84935;-53
2022/01/16 22:14:03;;;;;;;26.92;10.50;;;6.80;99.90;;;;;;10249413;28;84962;-49
2022/01/16 22:19:03;;;;;;;26.85;10.77;;;6.90;99.90;;;;;;10262492;28;84104;-53
2022/01/16 22:24:05;;;;;;;25.98;10.05;;;6.90;99.90;;;;;;10269707;28;84331;-53
2022/01/16 22:29:05;;;;;;;22.92;9.43;;;6.90;99.90;;;;;;10284749;28;84149;-52
2022/01/16 22:34:09;;;;;;;26.35;11.38;;;6.90;99.90;;;;;;10224952;28;85121;-51
2022/01/16 22:39:10;;;;;;;28.60;10.60;;;6.90;99.90;;;;;;10208501;28;84717;-48
2022/01/16 22:44:11;;;;;;;22.70;9.35;;;7.00;99.90;;;;;;10222530;28;84306;-46
2022/01/16 22:49:11;;;;;;;21.13;8.52;;;7.00;99.90;;;;;;10242813;28;84879;-47
2022/01/16 22:54:13;;;;;;;24.20;8.80;;;7.00;99.90;;;;;;10242601;28;84359;-50
2022/01/16 22:59:14;;;;;;;21.40;8.73;;;7.00;99.90;;;;;;10258774;28;84958;-53
2022/01/16 23:04:15;;;;;;;21.55;8.27;;;7.00;99.90;;;;;;10245750;28;84142;-48
2022/01/16 23:09:17;;;;;;;27.92;9.00;;;7.10;99.90;;;;;;10245580;28;84281;-46
2022/01/16 23:14:18;;;;;;;23.83;9.10;;;7.00;99.90;;;;;;10246789;28;84278;-49
2022/01/16 23:19:19;;;;;;;18.50;8.05;;;7.00;99.90;;;;;;10248533;28;84994;-53
2022/01/16 23:24:21;;;;;;;17.38;8.10;;;7.10;99.90;;;;;;10256260;28;84167;-52
2022/01/16 23:29:22;;;;;;;20.65;7.60;;;7.10;99.90;;;;;;10251611;28;84824;-47
2022/01/16 23:34:23;;;;;;;18.67;6.60;;;7.10;99.90;;;;;;10252678;28;84057;-46
2022/01/16 23:39:23;;;;;;;17.55;7.07;;;7.10;99.90;;;;;;10250380;28;84999;-46
2022/01/16 23:44:28;;;;;;;15.40;5.82;;;7.10;99.90;;;;;;10235189;28;85131;-53
2022/01/16 23:49:29;;;;;;;22.83;6.10;;;7.00;99.90;;;;;;10252530;28;84938;-52
2022/01/16 23:54:29;;;;;;;20.55;5.53;;;7.10;99.90;;;;;;10251399;28;86951;-48
2022/01/16 23:59:30;;;;;;;20.17;6.43;;;7.00;99.90;;;;;;10250296;28;84791;-48
